Time;durP1;ratioP1;P1;durP2;ratioP2;P2;SDS_P1;SDS_P2;PMS_P1;PMS_P2;Temp;Humidity;BMP_temperature;BMP_pressure;BME280_temperature;BME280_humidity;BME280_pressure;Samples;Min_cycle;Max_cycle;Signal;HPM_P1;HPM_P2
2022/04/22 00:01:11;;;;;;;3.95;3.58;;;;;;;9.06;69.04;100147.13;4966580;28;20002;-72
2022/04/22 00:03:37;;;;;;;4.00;3.70;;;;;;;9.07;69.21;100146.16;4969552;28;20026;-71
2022/04/22 00:06:02;;;;;;;4.10;3.60;;;;;;;9.17;68.50;100143.50;4957737;28;20014;-70
2022/04/22 00:08:28;;;;;;;4.45;3.42;;;;;;;8.91;69.70;100142.28;4951427;28;20778;-70
2022/04/22 00:13:37;;;;;;;5.22;3.42;;;;;;;8.91;69.97;100138.78;4969206;28;20021;-70
2022/04/22 00:16:03;;;;;;;4.10;3.60;;;;;;;8.70;69.97;100137.16;4961091;28;20482;-70
2022/04/22 00:18:30;;;;;;;6.78;4.07;;;;;;;8.80;69.86;100141.56;4951043;28;20003;-70
2022/04/22 00:20:55;;;;;;;4.15;3.85;;;;;;;8.96;69.14;100135.75;4961215;28;20351;-71
2022/04/22 00:23:21;;;;;;;5.65;3.92;;;;;;;8.90;69.25;100132.69;4966750;28;20015;-71
2022/04/22 00:25:46;;;;;;;4.07;3.67;;;;;;;8.92;69.50;100133.38;4961066;28;20804;-69
2022/04/22 00:28:12;;;;;;;4.78;3.78;;;;;;;8.92;69.34;100132.53;4934448;28;19995;-70
2022/04/22 00:30:37;;;;;;;3.83;3.53;;;;;;;8.80;69.79;100129.25;4937960;28;20174;-70
2022/04/22 00:33:04;;;;;;;3.67;3.40;;;;;;;8.63;70.00;100124.66;4958402;28;20048;-71
2022/04/22 00:35:29;;;;;;;4.25;3.35;;;;;;;8.72;69.85;100127.28;4953402;28;20119;-71
2022/04/22 00:37:54;;;;;;;4.22;3.83;;;;;;;8.74;70.05;100127.16;4961363;28;20031;-70
2022/04/22 00:40:20;;;;;;;4.38;4.00;;;;;;;8.63;70.23;100143.13;4953757;28;20042;-70
2022/04/22 00:42:46;;;;;;;6.63;3.95;;;;;;;8.39;71.10;100133.78;4957969;28;20018;-71
2022/04/22 00:45:12;;;;;;;4.75;3.95;;;;;;;8.51;70.77;100145.06;4966485;28;20025;-71
2022/04/22 00:47:38;;;;;;;4.20;3.83;;;;;;;8.37;71.08;100135.72;4941028;28;20552;-70
2022/04/22 00:50:04;;;;;;;5.13;4.60;;;;;;;8.38;71.32;100137.41;4958579;28;20997;-70
2022/04/22 00:52:29;;;;;;;9.43;4.28;;;;;;;8.40;71.12;100138.09;4959525;28;20022;-69
2022/04/22 00:54:54;;;;;;;4.32;3.90;;;;;;;8.36;71.41;100128.78;4962342;28;20809;-70
2022/04/22 00:57:20;;;;;;;5.25;3.80;;;;;;;8.41;70.97;100121.31;4936994;28;20007;-71
2022/04/22 00:59:46;;;;;;;4.07;3.85;;;;;;;8.38;71.39;100121.59;4951304;28;20858;-71
2022/04/22 01:02:11;;;;;;;8.05;4.15;;;;;;;8.41;71.49;100116.03;4951548;28;20021;-70
2022/04/22 01:10:07;;;;;;;4.20;3.85;;;;;;;8.53;70.80;100124.66;4958975;28;20042;-70
2022/04/22 01:12:32;;;;;;;5.63;3.88;;;;;;;8.35;71.36;100121.88;4961410;28;20023;-71
2022/04/22 01:14:58;;;;;;;5.45;4.15;;;;;;;8.10;72.02;100113.50;4944876;28;20720;-71
2022/04/22 01:17:25;;;;;;;5.13;4.30;;;;;;;8.09;72.31;100111.81;4967032;28;20710;-69
2022/04/22 01:19:50;;;;;;;4.05;3.75;;;;;;;7.94;72.50;100116.66;4944457;28;20113;-70
2022/04/22 01:22:16;;;;;;;5.22;4.05;;;;;;;8.02;72.85;100106.28;4950664;28;20014;-71
2022/04/22 01:24:42;;;;;;;4.80;4.32;;;;;;;7.96;72.84;100103.34;4947800;28;20010;-70
2022/04/22 01:27:09;;;;;;;4.50;4.10;;;;;;;7.97;72.38;100099.75;4964273;28;20463;-70
2022/04/22 01:29:35;;;;;;;4.15;3.95;;;;;;;7.96;72.94;100106.00;4979859;28;20042;-69
2022/04/22 01:32:01;;;;;;;4.93;4.53;;;;;;;7.79;73.13;100104.84;4946822;28;20783;-70
2022/04/22 01:34:26;;;;;;;5.10;4.55;;;;;;;7.70;73.38;100094.13;4947945;28;20878;-70
2022/04/22 01:36:51;;;;;;;6.25;4.30;;;;;;;7.62;73.88;100093.16;4947478;28;20010;-70
2022/04/22 01:39:17;;;;;;;4.72;4.43;;;;;;;7.59;74.33;100085.50;4950675;28;20030;-71
2022/04/22 01:41:42;;;;;;;8.15;5.00;;;;;;;7.73;73.56;100085.16;4980712;28;20030;-70
2022/04/22 01:44:08;;;;;;;4.78;4.38;;;;;;;7.74;73.18;100079.75;4983635;28;20767;-71
2022/04/22 01:46:33;;;;;;;5.35;4.90;;;;;;;7.86;72.80;100090.97;4960809;28;20315;-71
2022/04/22 01:48:59;;;;;;;4.82;4.20;;;;;;;7.87;72.86;100076.84;4985229;28;20015;-70
2022/04/22 01:51:24;;;;;;;4.70;4.35;;;;;;;7.85;72.95;100084.03;5004361;28;20108;-70
2022/04/22 01:53:50;;;;;;;5.30;4.65;;;;;;;7.86;72.73;100085.72;5002925;28;20006;-71
2022/04/22 01:56:15;;;;;;;6.68;4.70;;;;;;;7.91;72.49;100078.25;4947125;28;20289;-72
2022/04/22 01:58:40;;;;;;;4.90;4.57;;;;;;;7.64;73.45;100088.56;4952575;28;20486;-72
2022/04/22 02:01:06;;;;;;;5.25;4.85;;;;;;;7.57;73.83;100088.25;4951778;28;20031;-70
2022/04/22 02:03:31;;;;;;;5.20;4.70;;;;;;;7.52;73.84;100088.66;4965630;28;20079;-70
2022/04/22 02:05:58;;;;;;;5.47;4.97;;;;;;;7.40;74.25;100084.47;4955048;28;20002;-71
2022/04/22 02:08:23;;;;;;;6.05;4.72;;;;;;;7.41;74.19;100080.06;4936664;28;20022;-71
2022/04/22 02:10:48;;;;;;;5.25;4.85;;;;;;;7.45;74.13;100081.47;4963662;28;20026;-71
2022/04/22 02:13:14;;;;;;;5.07;4.70;;;;;;;7.60;73.58;100080.13;4968323;28;20760;-71
2022/04/22 02:15:39;;;;;;;5.13;4.70;;;;;;;7.60;73.25;100076.63;4939752;28;20100;-70
2022/04/22 02:18:05;;;;;;;6.13;5.13;;;;;;;7.39;74.15;100070.47;4951524;28;20027;-70
2022/04/22 02:20:30;;;;;;;8.68;5.57;;;;;;;7.36;74.32;100067.25;4966992;28;20117;-71
2022/04/22 02:22:55;;;;;;;5.78;5.18;;;;;;;7.26;74.83;100071.66;4956531;28;20117;-71
2022/04/22 02:25:21;;;;;;;6.03;5.47;;;;;;;7.16;75.36;100076.88;4975188;28;20041;-71
2022/04/22 02:30:30;;;;;;;8.35;6.35;;;;;;;6.95;76.04;100071.66;4968742;28;20889;-70
2022/04/22 02:32:56;;;;;;;6.03;5.38;;;;;;;7.14;75.25;100074.38;4952668;28;20010;-69
2022/04/22 02:35:21;;;;;;;5.93;5.43;;;;;;;7.03;75.53;100071.84;4949727;28;20091;-70
2022/04/22 02:37:50;;;;;;;6.25;5.70;;;;;;;7.09;75.26;100068.66;4945451;28;20022;-71
2022/04/22 02:45:26;;;;;;;5.82;5.40;;;;;;;7.28;74.77;100067.13;4949837;28;21076;-71
2022/04/22 02:45:46;;;;;;;6.53;5.80;;;;;;;7.05;75.47;100062.84;4951772;28;20911;-71
2022/04/22 02:48:11;;;;;;;6.93;6.13;;;;;;;7.17;74.78;100065.41;4918276;28;20018;-70
2022/04/22 02:50:37;;;;;;;6.40;5.82;;;;;;;7.11;75.34;100064.13;4951955;28;20030;-71
2022/04/22 02:53:02;;;;;;;7.38;6.00;;;;;;;6.90;75.98;100060.72;4949562;28;20061;-71
2022/04/22 02:55:27;;;;;;;6.53;5.93;;;;;;;6.85;75.66;100051.41;4951517;28;20015;-71
2022/04/22 02:57:53;;;;;;;5.93;5.43;;;;;;;6.85;75.78;100059.28;4920430;28;20429;-70
2022/04/22 03:00:18;;;;;;;6.32;5.78;;;;;;;6.82;76.31;100059.53;4955072;28;20921;-70
2022/04/22 03:02:44;;;;;;;8.05;6.18;;;;;;;6.72;76.46;100063.09;4949886;28;20030;-70
2022/04/22 03:05:10;;;;;;;6.28;5.68;;;;;;;6.69;76.31;100064.16;4954238;28;20022;-70
2022/04/22 03:07:35;;;;;;;6.97;6.38;;;;;;;6.60;76.87;100060.53;4944461;28;21024;-70
2022/04/22 03:10:00;;;;;;;7.13;6.53;;;;;;;6.49;77.45;100053.53;4945352;28;20379;-71
2022/04/22 03:12:26;;;;;;;7.00;5.93;;;;;;;6.64;76.95;100055.81;4931199;28;20015;-69
2022/04/22 03:14:52;;;;;;;6.95;6.25;;;;;;;6.59;76.28;100063.28;4947050;28;20023;-69
2022/04/22 03:17:17;;;;;;;7.38;6.32;;;;;;;6.59;76.38;100061.47;4955073;28;20404;-71
2022/04/22 03:19:43;;;;;;;6.57;5.97;;;;;;;6.49;77.01;100060.56;4965199;28;20024;-71
2022/04/22 03:22:08;;;;;;;6.93;6.32;;;;;;;6.55;77.10;100043.47;4956191;28;20892;-71
2022/04/22 03:24:34;;;;;;;11.65;6.68;;;;;;;6.55;77.43;100051.34;4948116;28;20990;-71
2022/04/22 03:26:59;;;;;;;7.13;6.43;;;;;;;6.53;77.50;100043.59;4936084;28;20003;-70
2022/04/22 03:29:24;;;;;;;7.10;6.40;;;;;;;6.49;77.18;100043.00;4955977;28;20030;-70
2022/04/22 03:31:50;;;;;;;6.97;6.28;;;;;;;6.45;77.04;100041.59;4969648;28;20165;-72
2022/04/22 03:34:15;;;;;;;6.57;6.07;;;;;;;6.49;77.06;100040.38;4969088;28;20147;-71
2022/04/22 03:36:40;;;;;;;6.85;6.30;;;;;;;6.47;76.72;100039.69;4961275;28;20902;-70
2022/04/22 03:39:07;;;;;;;6.40;5.80;;;;;;;6.57;76.83;100038.91;4962996;28;20045;-70
2022/04/22 03:41:33;;;;;;;7.60;6.00;;;;;;;6.60;75.98;100036.84;4929699;28;20015;-70
2022/04/22 03:43:59;;;;;;;8.32;6.32;;;;;;;6.67;75.22;100034.53;4946417;28;20206;-71
2022/04/22 03:46:25;;;;;;;6.53;5.93;;;;;;;6.86;74.37;100028.56;4960520;28;20139;-71
2022/04/22 03:48:50;;;;;;;7.90;6.40;;;;;;;6.63;75.45;100033.97;4970560;28;20488;-70
2022/04/22 03:51:15;;;;;;;7.78;6.97;;;;;;;6.55;75.46;100035.56;4970252;28;20048;-71
2022/04/22 03:53:41;;;;;;;6.43;5.88;;;;;;;6.62;75.46;100023.59;4975377;28;20079;-71
2022/04/22 03:58:50;;;;;;;7.40;5.93;;;;;;;6.74;74.95;100019.94;4960824;28;20356;-69
2022/04/22 04:01:15;;;;;;;7.47;6.72;;;;;;;6.50;75.96;100031.53;4964100;28;20022;-72
2022/04/22 04:03:41;;;;;;;7.20;6.47;;;;;;;6.46;76.43;100022.25;4921619;28;21132;-71
2022/04/22 04:06:07;;;;;;;6.90;6.22;;;;;;;6.61;75.22;100017.47;4940627;28;20780;-71
2022/04/22 04:08:32;;;;;;;6.88;6.25;;;;;;;6.64;75.16;100029.53;4938078;28;20080;-72
2022/04/22 04:16:22;;;;;;;7.00;6.40;;;;;;;6.19;77.39;100015.69;4956408;28;20575;-72
2022/04/22 04:18:48;;;;;;;7.40;6.63;;;;;;;6.22;76.92;100013.75;4957307;28;20025;-72
2022/04/22 04:23:57;;;;;;;;;;;;;;;5.98;77.50;100006.94;4961372;28;20363;-71
2022/04/22 04:26:24;;;;;;;7.13;6.22;;;;;;;5.98;77.26;100012.19;4937537;28;20304;-72
2022/04/22 04:28:50;;;;;;;7.38;6.78;;;;;;;5.92;78.02;100012.66;4958370;28;20050;-72
2022/04/22 04:31:16;;;;;;;7.68;6.68;;;;;;;5.89;77.73;100010.28;4935145;28;21133;-72
2022/04/22 04:33:41;;;;;;;6.85;5.97;;;;;;;6.08;77.49;100007.00;4934553;28;20454;-73
2022/04/22 04:36:09;;;;;;;7.93;7.05;;;;;;;5.95;77.71;100004.53;4961586;28;20878;-72
2022/04/22 04:38:34;;;;;;;7.15;6.47;;;;;;;6.02;77.32;100013.59;4946655;28;20011;-71
2022/04/22 04:41:00;;;;;;;11.40;6.68;;;;;;;6.00;77.37;100015.53;4954299;28;20033;-73
2022/04/22 04:43:26;;;;;;;9.63;6.35;;;;;;;6.21;77.03;100017.34;4963191;28;21067;-73
2022/04/22 04:45:52;;;;;;;8.02;6.97;;;;;;;6.09;76.92;100022.66;4966486;28;20026;-71
2022/04/22 04:48:17;;;;;;;12.88;6.80;;;;;;;5.99;77.69;100027.84;4963339;28;20262;-72
2022/04/22 04:50:43;;;;;;;7.20;6.47;;;;;;;5.90;77.86;100019.84;4957445;28;20885;-73
2022/04/22 04:53:09;;;;;;;7.70;7.00;;;;;;;6.17;76.94;100016.75;4956508;28;20026;-71
2022/04/22 04:55:34;;;;;;;7.18;6.47;;;;;;;6.10;77.42;100016.44;4966687;28;20151;-71
2022/04/22 04:58:00;;;;;;;7.38;6.65;;;;;;;6.05;77.77;100013.38;4960570;28;20558;-71
2022/04/22 05:00:25;;;;;;;8.25;6.38;;;;;;;6.31;76.44;100019.06;4979504;28;21108;-72
2022/04/22 05:02:51;;;;;;;8.07;7.07;;;;;;;6.23;76.69;100025.94;5006231;28;20024;-73
2022/04/22 05:05:16;;;;;;;7.78;6.38;;;;;;;6.42;76.10;100028.72;4978786;28;20024;-72
2022/04/22 05:07:53;;;;;;;9.35;6.93;;;;;;;6.38;76.73;100021.22;4955956;28;20569;-71
2022/04/22 05:10:19;;;;;;;11.50;8.10;;;;;;;6.33;76.95;100019.81;4943158;28;20030;-72
2022/04/22 05:12:46;;;;;;;8.50;7.43;;;;;;;6.26;77.33;100012.53;4943076;28;20016;-71
2022/04/22 05:15:11;;;;;;;9.85;7.00;;;;;;;6.29;77.42;100015.75;4968826;28;20022;-73
2022/04/22 05:17:39;;;;;;;8.70;6.85;;;;;;;6.41;77.02;100013.88;4954882;28;20814;-72
2022/04/22 05:20:04;;;;;;;8.02;7.30;;;;;;;6.33;77.07;100011.06;4945556;28;20010;-72
2022/04/22 05:22:30;;;;;;;8.45;6.93;;;;;;;6.29;77.15;100015.75;4958251;28;20014;-72
2022/04/22 05:24:56;;;;;;;7.78;7.03;;;;;;;6.30;77.59;100006.94;4966669;28;20880;-72
2022/04/22 05:27:21;;;;;;;7.78;6.97;;;;;;;6.47;77.16;100012.53;4947870;28;20026;-73
2022/04/22 05:32:36;;;;;;;7.68;6.97;;;;;;;6.50;77.12;99999.16;4946207;28;20042;-72
2022/04/22 05:35:03;;;;;;;8.23;7.45;;;;;;;6.52;77.29;99999.88;4952749;28;20026;-73
2022/04/22 05:37:41;;;;;;;8.50;7.80;;;;;;;6.70;77.28;99986.97;4955939;28;20083;-72
2022/04/22 05:40:07;;;;;;;8.07;7.38;;;;;;;6.84;76.78;99994.50;4940660;28;20959;-72
2022/04/22 05:42:32;;;;;;;9.20;7.20;;;;;;;6.95;76.94;99990.09;4957520;28;20026;-73
2022/04/22 05:44:57;;;;;;;9.32;7.93;;;;;;;7.10;76.20;99986.16;4963175;28;20046;-72
2022/04/22 05:47:23;;;;;;;11.10;7.72;;;;;;;7.10;76.59;99987.97;4961498;28;20124;-72
2022/04/22 05:49:49;;;;;;;10.73;8.73;;;;;;;7.12;77.22;99986.88;4957232;28;20037;-71
2022/04/22 05:52:15;;;;;;;9.63;7.85;;;;;;;7.27;77.88;99991.75;4955294;28;20075;-72
2022/04/22 05:54:40;;;;;;;9.32;8.05;;;;;;;7.45;77.31;99995.41;4947468;28;20951;-72
2022/04/22 05:57:05;;;;;;;8.80;8.00;;;;;;;7.64;77.25;99992.00;4968719;28;20381;-72
2022/04/22 05:59:31;;;;;;;11.95;8.85;;;;;;;7.76;77.05;99983.97;4916584;28;20014;-71
2022/04/22 06:01:56;;;;;;;10.00;9.10;;;;;;;7.86;76.93;99988.25;4929945;28;20007;-71
2022/04/22 06:04:22;;;;;;;10.73;9.50;;;;;;;8.03;76.94;99985.91;4947296;28;20754;-72
2022/04/22 06:06:47;;;;;;;12.75;10.18;;;;;;;8.25;75.93;99984.78;4957651;28;20014;-72
2022/04/22 06:11:56;;;;;;;15.98;10.90;;;;;;;8.69;74.37;99981.69;4966180;28;20083;-73
2022/04/22 06:14:22;;;;;;;13.88;12.48;;;;;;;8.87;74.44;99982.59;4958099;28;20527;-73
2022/04/22 06:16:47;;;;;;;13.35;11.95;;;;;;;9.03;74.30;99979.31;4962095;28;20161;-73
2022/04/22 06:19:12;;;;;;;18.92;12.48;;;;;;;9.24;74.07;99979.09;4947275;28;20020;-73
2022/04/22 06:21:38;;;;;;;13.65;12.25;;;;;;;9.33;73.65;99979.19;4939426;28;20507;-71
2022/04/22 06:24:04;;;;;;;13.52;12.23;;;;;;;9.41;74.26;99971.34;4943014;28;20018;-72
2022/04/22 06:26:29;;;;;;;15.00;12.38;;;;;;;9.55;73.86;99986.69;4958426;28;20095;-73
2022/04/22 06:28:54;;;;;;;14.98;13.43;;;;;;;9.62;73.90;99968.44;4955035;28;20972;-72
2022/04/22 06:31:20;;;;;;;15.25;12.90;;;;;;;9.81;72.75;99972.75;4959097;28;20107;-73
2022/04/22 06:33:46;;;;;;;13.65;12.15;;;;;;;9.96;72.62;99973.03;4935146;28;19999;-72
2022/04/22 06:36:13;;;;;;;14.15;12.70;;;;;;;9.91;72.15;99970.03;4952196;28;20030;-72
2022/04/22 06:38:39;;;;;;;14.20;12.68;;;;;;;9.82;72.07;99971.75;4951256;28;20050;-73
2022/04/22 06:46:34;;;;;;;;;;;;;;;9.87;72.51;99974.78;4956498;28;20029;-72
2022/04/22 06:49:00;;;;;;;13.53;11.77;;;;;;;9.93;72.30;99976.81;4972869;28;19908;-74
2022/04/22 06:51:25;;;;;;;14.23;12.50;;;;;;;9.94;73.08;99975.00;4941151;28;20022;-74
2022/04/22 06:53:52;;;;;;;13.98;12.13;;;;;;;9.95;72.66;99974.03;4952264;28;20366;-74
2022/04/22 06:56:19;;;;;;;13.35;11.95;;;;;;;10.06;72.86;99978.25;4940647;28;20435;-73
2022/04/22 06:58:45;;;;;;;13.80;12.48;;;;;;;10.07;72.98;99977.28;4935440;28;21011;-73
2022/04/22 07:01:10;;;;;;;14.15;12.70;;;;;;;10.13;72.21;99977.47;4950559;28;20042;-72
2022/04/22 07:03:36;;;;;;;13.60;12.20;;;;;;;10.18;72.28;99979.69;4920671;28;20399;-73
2022/04/22 07:06:01;;;;;;;13.85;12.43;;;;;;;10.20;72.45;99982.19;4953198;28;20018;-72
2022/04/22 07:08:26;;;;;;;14.02;12.63;;;;;;;10.32;72.46;99979.13;4961443;28;20108;-72
2022/04/22 07:10:52;;;;;;;13.68;12.35;;;;;;;10.38;72.18;99984.78;4947744;28;20026;-72
2022/04/22 07:13:18;;;;;;;13.70;12.27;;;;;;;10.43;72.05;99971.94;4957254;28;20003;-72
2022/04/22 07:15:44;;;;;;;13.90;12.40;;;;;;;10.41;72.04;99982.69;4943430;28;20923;-72
2022/04/22 07:18:10;;;;;;;15.25;12.80;;;;;;;10.52;71.85;99978.13;4970472;28;20110;-73
2022/04/22 07:20:36;;;;;;;13.88;12.55;;;;;;;10.52;71.27;99971.03;4956378;28;20201;-73
2022/04/22 07:23:01;;;;;;;14.38;12.75;;;;;;;10.68;71.63;99980.88;4954080;28;20114;-73
2022/04/22 07:25:27;;;;;;;13.85;12.45;;;;;;;10.64;71.28;99964.47;4956516;28;20060;-72
2022/04/22 07:27:53;;;;;;;15.50;12.73;;;;;;;10.73;71.57;99964.53;4949468;28;20006;-72
2022/04/22 07:30:19;;;;;;;13.32;12.02;;;;;;;10.87;70.71;99958.66;4955808;28;20058;-72
2022/04/22 07:32:48;;;;;;;14.15;12.65;;;;;;;11.07;70.41;99953.09;4955826;28;20488;-72
2022/04/22 07:35:17;;;;;;;13.35;11.93;;;;;;;11.45;69.46;99961.50;4953300;28;20227;-73
2022/04/22 07:37:50;;;;;;;13.75;12.05;;;;;;;11.86;69.41;99956.28;4961164;28;20015;-72
2022/04/22 07:40:16;;;;;;;14.02;12.63;;;;;;;11.94;67.26;99956.28;4936614;28;20799;-72
2022/04/22 07:46:46;;;;;;;15.20;12.93;;;;;;;12.01;68.04;99946.72;4924040;28;20015;-73
2022/04/22 07:48:12;;;;;;;;;;;;;;;12.23;67.22;99952.34;4952744;28;21021;-72
2022/04/22 07:50:37;;;;;;;13.93;12.48;;;;;;;12.35;66.82;99947.50;4965297;28;19912;-72
2022/04/22 07:53:03;;;;;;;14.50;13.02;;;;;;;12.36;66.26;99944.66;4950260;28;20011;-72
2022/04/22 07:55:28;;;;;;;13.35;11.98;;;;;;;12.56;65.82;99948.78;4955265;28;20857;-73
2022/04/22 07:57:56;;;;;;;12.77;11.45;;;;;;;12.62;65.41;99948.09;4960027;28;20015;-72
2022/04/22 08:00:21;;;;;;;13.27;11.90;;;;;;;12.74;65.19;99951.25;4952006;28;20278;-72
2022/04/22 08:02:47;;;;;;;12.07;10.82;;;;;;;12.83;64.90;99952.84;4956910;28;20793;-72
2022/04/22 08:05:12;;;;;;;11.63;10.63;;;;;;;12.97;64.64;99954.81;4966784;28;20023;-72
2022/04/22 08:07:38;;;;;;;11.70;10.57;;;;;;;13.09;63.60;99943.81;4964765;28;20227;-72
2022/04/22 08:10:04;;;;;;;10.40;9.50;;;;;;;13.20;61.67;99956.72;4939518;28;20027;-72
2022/04/22 08:12:29;;;;;;;9.35;8.55;;;;;;;13.35;58.85;99944.38;4969404;28;20045;-72
2022/04/22 08:14:54;;;;;;;8.80;8.10;;;;;;;13.47;60.41;99946.66;4978847;28;20115;-73
2022/04/22 08:17:20;;;;;;;8.70;7.90;;;;;;;13.43;58.35;99950.66;4974989;28;20049;-72
2022/04/22 08:19:46;;;;;;;8.05;7.35;;;;;;;13.59;59.13;99939.91;4989952;28;20589;-74
2022/04/22 08:22:12;;;;;;;7.70;6.90;;;;;;;13.79;57.62;99942.94;4978914;28;20006;-73
2022/04/22 08:24:37;;;;;;;8.35;7.10;;;;;;;13.87;55.79;99936.72;4997328;28;21118;-73
2022/04/22 08:27:03;;;;;;;7.20;6.60;;;;;;;14.02;55.77;99931.47;4999202;28;20900;-72
2022/04/22 08:29:28;;;;;;;7.45;6.85;;;;;;;13.85;55.15;99944.88;4955385;28;20055;-72
2022/04/22 08:31:55;;;;;;;7.60;6.90;;;;;;;13.62;55.74;99955.53;4971240;28;20019;-73
2022/04/22 08:34:21;;;;;;;7.00;6.50;;;;;;;13.85;55.69;99944.06;4989230;28;20033;-73
2022/04/22 08:36:47;;;;;;;6.50;6.00;;;;;;;13.95;55.14;99938.50;4994119;28;20506;-74
2022/04/22 08:39:13;;;;;;;7.45;6.70;;;;;;;13.63;54.80;99951.84;4994113;28;20029;-73
2022/04/22 08:41:40;;;;;;;6.60;6.10;;;;;;;13.51;55.98;99953.25;5001791;28;20038;-73
2022/04/22 08:44:06;;;;;;;7.05;6.45;;;;;;;13.50;55.05;99948.94;4995262;28;20002;-72
2022/04/22 08:52:00;;;;;;;7.28;6.68;;;;;;;13.82;54.61;99933.75;5009023;28;20199;-73
2022/04/22 08:54:26;;;;;;;7.57;6.88;;;;;;;14.16;54.37;99940.47;4999832;28;20011;-73
2022/04/22 08:56:52;;;;;;;7.03;6.32;;;;;;;14.46;54.59;99929.88;4990220;28;20357;-71
2022/04/22 08:59:18;;;;;;;6.82;6.18;;;;;;;14.49;53.69;99924.19;4975082;28;20007;-72
2022/04/22 09:01:43;;;;;;;7.28;6.70;;;;;;;14.30;53.10;99934.34;4957166;28;20028;-73
2022/04/22 09:04:08;;;;;;;6.40;5.90;;;;;;;14.40;52.93;99926.94;4956361;28;20015;-74
2022/04/22 09:06:34;;;;;;;6.85;6.25;;;;;;;14.37;53.12;99927.28;5003771;28;20023;-72
2022/04/22 09:08:59;;;;;;;6.63;6.13;;;;;;;14.43;53.34;99926.56;4982056;28;20124;-72
2022/04/22 09:11:25;;;;;;;6.25;5.85;;;;;;;14.39;52.85;99924.44;4998308;28;20161;-74
2022/04/22 09:13:51;;;;;;;6.13;5.63;;;;;;;14.40;51.34;99916.28;4983196;28;20266;-74
2022/04/22 09:16:19;;;;;;;5.80;5.40;;;;;;;14.47;50.66;99920.88;4976720;28;20457;-74
2022/04/22 09:18:45;;;;;;;5.97;5.10;;;;;;;14.47;49.00;99920.88;5000825;28;19999;-72
2022/04/22 09:21:15;;;;;;;6.13;5.60;;;;;;;14.43;49.17;99910.59;4989281;28;20064;-72
2022/04/22 09:23:40;;;;;;;6.72;5.35;;;;;;;14.53;51.68;99910.31;4983887;28;20376;-73
2022/04/22 09:26:06;;;;;;;6.50;6.07;;;;;;;14.55;51.54;99920.78;5000593;28;20034;-74
2022/04/22 09:28:32;;;;;;;7.30;6.80;;;;;;;14.58;52.29;99915.09;4989838;28;20898;-74
2022/04/22 09:31:02;;;;;;;7.15;6.60;;;;;;;14.65;51.37;99908.06;4996237;28;20091;-74
2022/04/22 09:33:35;;;;;;;7.22;6.57;;;;;;;14.83;51.57;99912.19;4989493;28;20023;-74
2022/04/22 09:44:27;;;;;;;7.03;6.43;;;;;;;15.50;50.73;99899.59;5005027;28;20190;-73
2022/04/22 09:47:09;;;;;;;7.05;6.45;;;;;;;15.92;49.13;99897.97;5009800;28;20069;-73
2022/04/22 09:49:43;;;;;;;7.10;6.50;;;;;;;16.51;48.16;99894.06;4999009;28;20011;-72
2022/04/22 09:52:08;;;;;;;6.53;6.10;;;;;;;16.64;48.42;99890.69;4998301;28;20014;-73
2022/04/22 09:54:33;;;;;;;6.40;6.00;;;;;;;16.87;46.90;99895.69;4994730;28;20503;-73
2022/04/22 09:57:01;;;;;;;6.60;6.10;;;;;;;17.65;44.22;99883.78;4998106;28;20014;-73
2022/04/22 09:59:27;;;;;;;10.85;6.03;;;;;;;18.27;43.07;99868.34;4999157;28;20277;-73
2022/04/22 10:01:52;;;;;;;6.57;6.07;;;;;;;17.89;42.68;99876.19;5000561;28;20941;-73
2022/04/22 10:04:20;;;;;;;6.85;6.38;;;;;;;16.92;41.98;99881.75;4992210;28;20054;-72
2022/04/22 10:06:46;;;;;;;5.70;5.30;;;;;;;16.54;43.65;99877.69;5002796;28;20699;-72
2022/04/22 10:09:14;;;;;;;5.90;5.40;;;;;;;16.37;44.16;99879.84;5002649;28;20027;-73
2022/04/22 10:11:40;;;;;;;6.95;5.70;;;;;;;15.98;43.78;99875.88;4980173;28;20027;-73
2022/04/22 10:14:07;;;;;;;6.22;5.82;;;;;;;16.28;44.74;99876.47;4986750;28;20037;-72
2022/04/22 10:16:32;;;;;;;6.22;5.90;;;;;;;16.26;43.11;99861.69;4995887;28;20030;-73
2022/04/22 10:18:58;;;;;;;6.15;5.75;;;;;;;16.15;44.49;99871.06;5013229;28;20216;-71
2022/04/22 10:21:23;;;;;;;7.00;6.47;;;;;;;16.16;44.14;99864.72;4996704;28;20003;-73
2022/04/22 10:23:49;;;;;;;6.70;6.20;;;;;;;16.35;42.63;99863.19;4978324;28;20007;-72
2022/04/22 10:26:14;;;;;;;6.07;5.63;;;;;;;16.86;45.21;99863.84;4978836;28;20054;-72
2022/04/22 10:28:40;;;;;;;6.20;5.80;;;;;;;17.20;43.47;99865.59;4986479;28;20021;-72
2022/04/22 10:31:05;;;;;;;5.75;5.25;;;;;;;17.59;42.91;99858.69;4991506;28;20022;-73
2022/04/22 10:33:41;;;;;;;6.38;5.88;;;;;;;17.94;41.27;99857.72;4965849;28;20031;-72
2022/04/22 10:36:07;;;;;;;5.55;5.15;;;;;;;17.80;40.98;99851.50;4970591;28;20452;-73
2022/04/22 10:38:33;;;;;;;5.70;5.15;;;;;;;17.62;42.11;99844.06;5015609;28;20018;-72
2022/04/22 10:41:02;;;;;;;5.75;5.45;;;;;;;17.18;42.52;99843.63;4981047;28;20166;-72
2022/04/22 10:43:28;;;;;;;6.10;5.60;;;;;;;17.04;42.42;99842.75;4981281;28;20022;-73
2022/04/22 10:48:40;;;;;;;6.35;5.82;;;;;;;17.10;42.87;99841.94;4971028;28;20057;-72
2022/04/22 10:51:07;;;;;;;6.35;5.85;;;;;;;17.36;41.68;99835.00;4987510;28;20027;-72
2022/04/22 10:53:46;;;;;;;6.00;5.60;;;;;;;17.33;40.69;99822.06;4957642;28;20058;-71
2022/04/22 10:56:27;;;;;;;5.57;5.20;;;;;;;17.07;42.64;99839.66;4964994;28;20105;-72
2022/04/22 10:59:20;;;;;;;5.97;5.57;;;;;;;16.69;41.60;99834.78;4960307;28;20031;-71
2022/04/22 11:01:46;;;;;;;6.05;5.63;;;;;;;16.63;42.82;99824.91;4959782;28;20296;-73
2022/04/22 11:04:23;;;;;;;5.47;5.18;;;;;;;16.80;43.17;99820.84;4922919;28;20168;-73
2022/04/22 11:06:48;;;;;;;6.28;5.75;;;;;;;18.10;43.24;99822.44;4959055;28;20019;-72
2022/04/22 11:09:35;;;;;;;5.85;5.35;;;;;;;19.93;40.00;99810.56;4958014;28;20122;-71
2022/04/22 11:12:01;;;;;;;5.65;5.25;;;;;;;21.20;36.25;99809.03;4945360;28;20170;-73
2022/04/22 11:14:28;;;;;;;4.40;4.20;;;;;;;22.29;32.81;99794.31;4966386;28;20030;-72
2022/04/22 11:16:55;;;;;;;5.63;5.22;;;;;;;22.34;32.17;99796.34;4954699;28;20019;-72
2022/04/22 11:19:21;;;;;;;6.40;4.93;;;;;;;21.81;33.20;99801.63;4950617;28;20056;-72
2022/04/22 11:21:50;;;;;;;4.80;4.60;;;;;;;21.43;34.11;99792.94;4974263;28;20122;-72
2022/04/22 11:24:17;;;;;;;4.47;4.10;;;;;;;22.35;33.39;99782.63;4961583;28;20319;-72
2022/04/22 11:26:44;;;;;;;4.50;4.30;;;;;;;22.80;33.37;99783.75;4976187;28;20021;-72
2022/04/22 11:29:10;;;;;;;4.93;4.63;;;;;;;21.84;33.02;99787.69;4958402;28;20497;-72
2022/04/22 11:31:36;;;;;;;4.70;4.40;;;;;;;21.96;34.00;99782.31;4961115;28;20257;-73
2022/04/22 11:34:12;;;;;;;5.30;5.00;;;;;;;22.12;31.93;99784.31;4977017;28;20027;-73
2022/04/22 11:36:44;;;;;;;4.50;4.30;;;;;;;22.92;31.96;99776.44;4954094;28;20531;-73
2022/04/22 11:39:25;;;;;;;4.90;4.60;;;;;;;23.21;30.26;99775.59;4953540;28;20259;-73
2022/04/22 11:41:57;;;;;;;4.07;3.88;;;;;;;24.71;30.11;99783.94;4963610;28;20481;-72
2022/04/22 11:44:26;;;;;;;4.85;4.55;;;;;;;24.69;29.52;99776.03;4970959;28;20022;-73
2022/04/22 11:46:52;;;;;;;4.55;4.30;;;;;;;24.10;30.02;99760.44;4935865;28;20381;-72
2022/04/22 11:49:18;;;;;;;4.22;3.97;;;;;;;23.14;30.57;99767.66;4977899;28;20026;-72
2022/04/22 11:51:44;;;;;;;4.35;4.05;;;;;;;23.20;32.51;99765.88;4955994;28;20019;-73
2022/04/22 11:54:09;;;;;;;4.10;3.90;;;;;;;23.09;31.29;99765.66;4957755;28;20015;-73
2022/04/22 11:56:37;;;;;;;4.40;4.10;;;;;;;24.28;30.37;99765.56;4961112;28;21325;-73
2022/04/22 11:59:03;;;;;;;5.95;4.07;;;;;;;24.29;28.78;99753.66;4975249;28;20083;-74
2022/04/22 12:07:03;;;;;;;;;;;;;;;21.82;31.80;99754.81;4953537;28;20980;-73
2022/04/22 12:09:28;;;;;;;5.00;4.70;;;;;;;21.70;33.68;99748.59;4976753;28;19912;-73
2022/04/22 12:11:57;;;;;;;4.47;3.72;;;;;;;22.87;30.94;99756.63;5002954;28;20187;-73
2022/04/22 12:14:24;;;;;;;4.15;3.95;;;;;;;22.77;30.89;99757.25;4983442;28;20506;-73
2022/04/22 12:16:57;;;;;;;4.22;3.90;;;;;;;24.10;30.62;99755.06;4975355;28;20029;-73
2022/04/22 12:19:23;;;;;;;5.75;4.20;;;;;;;23.97;29.21;99753.53;4981832;28;20014;-73
2022/04/22 12:21:48;;;;;;;3.47;3.38;;;;;;;24.49;28.69;99744.16;4958275;28;20462;-73
2022/04/22 12:24:15;;;;;;;5.13;4.82;;;;;;;24.75;26.33;99733.63;4944960;28;20027;-72
2022/04/22 12:26:40;;;;;;;4.70;4.40;;;;;;;25.42;26.87;99728.81;4945052;28;20018;-72
2022/04/22 12:29:10;;;;;;;4.60;4.30;;;;;;;23.49;29.63;99735.03;4965759;28;20513;-72